createdAt,value
2018-04-26T00:00:33.689Z,12.70
2018-04-26T00:03:00.153Z,11.20
2018-04-26T00:05:26.641Z,9.97
2018-04-26T00:07:53.872Z,11.90
2018-04-26T00:10:20.346Z,10.83
2018-04-26T00:12:47.588Z,11.17
2018-04-26T00:15:14.828Z,10.90
2018-04-26T00:17:41.364Z,11.20
2018-04-26T00:20:07.807Z,11.07
2018-04-26T00:22:34.299Z,12.40
2018-04-26T00:25:00.775Z,10.97
2018-04-26T00:27:27.236Z,11.20
2018-04-26T00:29:54.439Z,11.50
2018-04-26T00:32:20.916Z,10.57
2018-04-26T00:34:47.393Z,12.07
2018-04-26T00:37:13.898Z,12.43
2018-04-26T00:39:40.409Z,11.70
2018-04-26T00:42:06.888Z,11.60
2018-04-26T00:44:34.184Z,11.87
2018-04-26T00:47:00.639Z,11.37
2018-04-26T00:49:27.087Z,11.60
2018-04-26T00:52:00.639Z,11.63
2018-04-26T00:54:27.117Z,12.63
2018-04-26T00:56:54.365Z,11.77
2018-04-26T00:59:20.848Z,12.70
2018-04-26T01:01:47.308Z,10.97
2018-04-26T01:04:14.533Z,11.57
2018-04-26T01:06:41.069Z,11.00
2018-04-26T01:09:07.548Z,12.17
2018-04-26T01:11:34.008Z,11.10
2018-04-26T01:14:00.514Z,10.80
2018-04-26T01:16:27.704Z,12.70
2018-04-26T01:18:54.164Z,12.40
2018-04-26T01:21:20.627Z,10.90
2018-04-26T01:23:47.841Z,11.90
2018-04-26T01:26:14.362Z,11.67
2018-04-26T01:28:40.866Z,12.27
2018-04-26T01:31:08.060Z,11.70
2018-04-26T01:33:34.562Z,10.93
2018-04-26T01:36:01.780Z,11.40
2018-04-26T01:38:28.258Z,10.80
2018-04-26T01:40:55.459Z,11.60
2018-04-26T01:43:21.948Z,12.60
2018-04-26T01:45:49.177Z,10.47
2018-04-26T01:48:15.640Z,11.30
2018-04-26T01:50:42.906Z,11.40
2018-04-26T01:53:10.107Z,10.40
2018-04-26T01:55:36.567Z,10.50
2018-04-26T01:58:03.079Z,10.57
2018-04-26T02:00:29.561Z,11.20
2018-04-26T02:02:56.964Z,11.90
2018-04-26T02:05:23.438Z,10.00
2018-04-26T02:07:49.934Z,11.33
2018-04-26T02:10:16.418Z,10.37
2018-04-26T02:12:42.901Z,10.60
2018-04-26T02:15:09.345Z,11.27
2018-04-26T02:17:35.794Z,12.20
2018-04-26T02:20:02.377Z,11.20
2018-04-26T02:22:28.836Z,11.90
2018-04-26T02:24:56.030Z,10.57
2018-04-26T02:27:22.501Z,11.70
2018-04-26T02:29:48.960Z,11.40
2018-04-26T02:32:16.167Z,12.20
2018-04-26T02:34:42.721Z,11.67
2018-04-26T02:37:09.179Z,12.33
2018-04-26T02:39:35.652Z,11.90
2018-04-26T02:42:02.141Z,10.73
2018-04-26T02:44:28.589Z,11.80
2018-04-26T02:46:55.061Z,10.90
2018-04-26T02:49:22.299Z,11.37
2018-04-26T02:51:48.779Z,11.23
2018-04-26T02:54:15.231Z,11.60
2018-04-26T02:56:41.724Z,11.50
2018-04-26T02:59:08.915Z,11.87
2018-04-26T03:01:35.389Z,11.30
2018-04-26T03:04:01.869Z,12.50
2018-04-26T03:06:28.323Z,14.23
2018-04-26T03:08:54.815Z,15.63
2018-04-26T03:11:21.298Z,13.87
2018-04-26T03:13:47.756Z,12.53
2018-04-26T03:16:14.235Z,12.27
2018-04-26T03:18:41.444Z,12.17
2018-04-26T03:21:07.887Z,12.47
2018-04-26T03:23:34.360Z,12.70
2018-04-26T03:26:00.834Z,14.60
2018-04-26T03:28:27.294Z,13.40
2018-04-26T03:30:53.761Z,12.60
2018-04-26T03:33:20.243Z,12.57
2018-04-26T03:35:46.703Z,13.63
2018-04-26T03:38:13.140Z,14.60
2018-04-26T03:40:39.633Z,13.50
2018-04-26T03:43:06.867Z,14.87
2018-04-26T03:45:33.340Z,14.13
2018-04-26T03:48:00.581Z,13.77
2018-04-26T03:50:27.778Z,13.90
2018-04-26T03:52:54.241Z,13.37
2018-04-26T03:55:20.770Z,12.50
2018-04-26T03:57:47.250Z,12.20
2018-04-26T04:00:26.555Z,13.90
2018-04-26T04:03:05.217Z,15.00
2018-04-26T04:05:44.740Z,14.10
2018-04-26T04:08:11.221Z,12.50
2018-04-26T04:10:37.727Z,13.17
2018-04-26T04:13:04.217Z,14.00
2018-04-26T04:15:30.679Z,13.80
2018-04-26T04:17:57.150Z,14.90
2018-04-26T04:20:23.652Z,13.87
2018-04-26T04:22:50.152Z,15.90
2018-04-26T04:25:16.664Z,15.93
2018-04-26T04:27:43.140Z,14.23
2018-04-26T04:30:09.640Z,15.03
2018-04-26T04:32:36.082Z,13.70
2018-04-26T04:35:03.363Z,13.70
2018-04-26T04:37:29.865Z,14.37
2018-04-26T04:39:56.300Z,14.07
2018-04-26T04:42:22.765Z,14.57
2018-04-26T04:44:49.957Z,15.40
2018-04-26T04:47:16.426Z,15.00
2018-04-26T04:49:42.961Z,15.40
2018-04-26T04:52:09.479Z,14.63
2018-04-26T04:54:35.959Z,14.30
2018-04-26T04:57:02.436Z,13.93
2018-04-26T04:59:28.889Z,14.33
2018-04-26T05:01:55.391Z,14.63
2018-04-26T05:04:22.592Z,14.53
2018-04-26T05:06:49.064Z,14.20
2018-04-26T05:09:15.555Z,13.87
2018-04-26T05:11:42.008Z,14.83
2018-04-26T05:14:08.557Z,14.33
2018-04-26T05:16:35.065Z,13.80
2018-04-26T05:19:01.588Z,14.95
2018-04-26T05:21:28.074Z,14.67
2018-04-26T05:23:54.522Z,13.33
2018-04-26T05:26:20.971Z,12.30
2018-04-26T05:28:47.438Z,12.93
2018-04-26T05:31:13.940Z,13.40
2018-04-26T05:33:40.479Z,12.77
2018-04-26T05:36:06.866Z,11.80
2018-04-26T05:38:33.326Z,12.83
2018-04-26T05:40:59.778Z,11.77
2018-04-26T05:43:26.265Z,11.73
2018-04-26T05:45:53.456Z,12.00
2018-04-26T05:48:20.002Z,11.90
2018-04-26T05:50:46.447Z,11.77
2018-04-26T05:53:13.833Z,12.00
2018-04-26T05:55:40.299Z,12.70
2018-04-26T05:58:06.726Z,11.60
2018-04-26T06:00:33.953Z,13.13
2018-04-26T06:03:00.415Z,11.80
2018-04-26T06:05:27.592Z,10.90
2018-04-26T06:07:54.036Z,11.17
2018-04-26T06:10:20.481Z,11.70
2018-04-26T06:12:46.913Z,10.97
2018-04-26T06:15:13.343Z,10.57
2018-04-26T06:17:39.796Z,11.27
2018-04-26T06:20:06.324Z,10.80
2018-04-26T06:22:32.747Z,10.50
2018-04-26T06:24:59.286Z,9.83
2018-04-26T06:27:25.684Z,11.30
2018-04-26T06:29:52.112Z,11.27
2018-04-26T06:32:18.595Z,10.20
2018-04-26T06:34:45.046Z,9.20
2018-04-26T06:37:11.505Z,9.90
2018-04-26T06:39:38.770Z,9.63
2018-04-26T06:42:05.269Z,9.73
2018-04-26T06:44:31.751Z,9.67
2018-04-26T06:46:58.209Z,10.90
2018-04-26T06:49:24.681Z,9.00
2018-04-26T06:51:51.146Z,8.33
2018-04-26T06:54:17.595Z,8.30
2018-04-26T06:56:44.054Z,6.83
2018-04-26T06:59:10.492Z,7.97
2018-04-26T07:01:36.934Z,8.73
2018-04-26T07:04:03.396Z,9.70
2018-04-26T07:06:30.648Z,8.73
2018-04-26T07:08:57.841Z,7.93
2018-04-26T07:11:24.279Z,8.70
2018-04-26T07:13:50.706Z,9.63
2018-04-26T07:16:17.191Z,9.27
2018-04-26T07:18:43.641Z,9.40
2018-04-26T07:21:10.840Z,9.63
2018-04-26T07:23:37.349Z,7.60
2018-04-26T07:26:04.588Z,7.50
2018-04-26T07:28:31.032Z,7.70
2018-04-26T07:30:58.244Z,7.13
2018-04-26T07:33:24.756Z,5.93
2018-04-26T07:35:51.221Z,7.67
2018-04-26T07:38:17.772Z,6.90
2018-04-26T07:40:44.205Z,7.27
2018-04-26T07:43:10.655Z,7.37
2018-04-26T07:45:37.192Z,7.50
2018-04-26T07:48:03.644Z,7.10
2018-04-26T07:50:30.155Z,7.50
2018-04-26T07:52:56.637Z,7.53
2018-04-26T07:55:23.814Z,8.13
2018-04-26T07:57:50.249Z,6.53
2018-04-26T08:00:16.689Z,6.47
2018-04-26T08:02:43.129Z,6.70
2018-04-26T08:05:09.554Z,6.80
2018-04-26T08:07:36.036Z,6.60
2018-04-26T08:10:02.660Z,6.60
2018-04-26T08:12:29.116Z,5.93
2018-04-26T08:14:56.009Z,7.20
2018-04-26T08:17:23.188Z,6.43
2018-04-26T08:19:49.622Z,7.23
2018-04-26T08:22:16.134Z,6.80
2018-04-26T08:24:43.331Z,7.30
2018-04-26T08:27:09.901Z,6.57
2018-04-26T08:29:36.371Z,6.40
2018-04-26T08:32:03.559Z,7.40
2018-04-26T08:34:30.023Z,7.90
2018-04-26T08:36:56.531Z,6.33
2018-04-26T08:39:22.978Z,7.40
2018-04-26T08:41:49.747Z,7.37
2018-04-26T08:44:16.235Z,7.33
2018-04-26T08:46:43.397Z,7.30
2018-04-26T08:49:09.841Z,7.07
2018-04-26T08:51:36.325Z,7.27
2018-04-26T08:54:02.807Z,7.53
2018-04-26T08:56:29.233Z,7.67
2018-04-26T08:58:56.547Z,6.90
2018-04-26T09:01:23.086Z,7.00
2018-04-26T09:03:49.589Z,8.70
2018-04-26T09:06:16.040Z,8.13
2018-04-26T09:08:42.473Z,8.73
2018-04-26T09:11:08.923Z,7.40
2018-04-26T09:13:35.411Z,9.07
2018-04-26T09:16:02.647Z,7.63
2018-04-26T09:18:29.138Z,8.40
2018-04-26T09:20:55.612Z,8.30
2018-04-26T09:23:22.130Z,8.17
2018-04-26T09:25:48.597Z,8.80
2018-04-26T09:28:15.194Z,9.63
2018-04-26T09:30:41.639Z,9.43
2018-04-26T09:33:08.152Z,8.33
2018-04-26T09:35:34.648Z,8.20
2018-04-26T09:38:01.172Z,8.47
2018-04-26T09:40:27.620Z,7.57
2018-04-26T09:42:54.117Z,8.77
2018-04-26T09:45:20.588Z,8.37
2018-04-26T09:47:47.068Z,9.73
2018-04-26T09:50:14.312Z,8.90
2018-04-26T09:52:40.775Z,7.20
2018-04-26T09:55:07.237Z,8.07
2018-04-26T09:57:33.696Z,8.20
2018-04-26T10:00:00.172Z,8.20
2018-04-26T10:02:27.385Z,7.50
2018-04-26T10:04:54.984Z,8.23
2018-04-26T10:07:21.420Z,7.77
2018-04-26T10:09:47.998Z,7.13
2018-04-26T10:12:14.482Z,6.57
2018-04-26T10:14:40.954Z,6.50
2018-04-26T10:17:08.179Z,7.33
2018-04-26T10:19:34.645Z,7.70
2018-04-26T10:22:01.830Z,7.20
2018-04-26T10:24:28.260Z,7.47
2018-04-26T10:26:54.752Z,7.60
2018-04-26T10:29:21.213Z,8.33
2018-04-26T10:31:48.401Z,7.50
2018-04-26T10:34:14.897Z,7.83
2018-04-26T10:36:42.100Z,8.17
2018-04-26T10:39:08.592Z,8.10
2018-04-26T10:41:35.801Z,8.50
2018-04-26T10:44:02.255Z,8.00
2018-04-26T10:46:28.707Z,8.50
2018-04-26T10:48:55.945Z,8.70
2018-04-26T10:51:22.394Z,7.83
2018-04-26T10:53:48.857Z,8.33
2018-04-26T10:56:16.089Z,7.27
2018-04-26T10:58:42.544Z,6.87
2018-04-26T11:01:09.727Z,7.07
2018-04-26T11:03:36.217Z,5.40
2018-04-26T11:06:02.708Z,5.93
2018-04-26T11:08:29.158Z,4.37
2018-04-26T11:10:55.624Z,4.93
2018-04-26T11:13:22.062Z,4.97
2018-04-26T11:15:48.511Z,4.60
2018-04-26T11:18:14.974Z,4.80
2018-04-26T11:20:42.190Z,4.30
2018-04-26T11:23:08.649Z,4.97
2018-04-26T11:25:35.156Z,4.60
2018-04-26T11:28:01.670Z,3.90
2018-04-26T11:30:28.153Z,4.30
2018-04-26T11:32:54.691Z,4.27
2018-04-26T11:35:21.158Z,3.93
2018-04-26T11:37:48.343Z,3.77
2018-04-26T11:40:14.827Z,3.50
2018-04-26T11:42:41.280Z,4.10
2018-04-26T11:45:08.523Z,4.33
2018-04-26T11:47:35.068Z,4.10
2018-04-26T11:50:01.530Z,4.03
2018-04-26T11:52:28.027Z,4.03
2018-04-26T11:54:54.504Z,4.70
2018-04-26T11:57:21.708Z,4.80
2018-04-26T11:59:48.220Z,4.60
2018-04-26T12:02:14.753Z,4.40
2018-04-26T12:04:41.205Z,4.30
2018-04-26T12:07:07.657Z,4.57
2018-04-26T12:09:34.161Z,4.87
2018-04-26T12:12:01.384Z,5.07
2018-04-26T12:14:27.841Z,5.23
2018-04-26T12:16:55.057Z,4.90
2018-04-26T12:19:21.501Z,5.00
2018-04-26T12:21:47.957Z,3.93
2018-04-26T12:24:14.458Z,4.03
2018-04-26T12:26:40.933Z,3.53
2018-04-26T12:29:08.504Z,4.07
2018-04-26T12:31:35.745Z,3.80
2018-04-26T12:34:02.234Z,3.13
2018-04-26T12:36:28.727Z,3.73
2018-04-26T12:38:55.211Z,3.73
2018-04-26T12:41:21.697Z,3.40
2018-04-26T12:43:48.179Z,3.60
2018-04-26T12:46:15.746Z,3.30
2018-04-26T12:48:42.276Z,3.30
2018-04-26T12:51:08.841Z,3.80
2018-04-26T12:53:35.369Z,3.97
2018-04-26T12:56:01.887Z,3.60
2018-04-26T12:58:29.074Z,2.83
2018-04-26T13:00:55.556Z,3.63
2018-04-26T13:03:22.045Z,3.20
2018-04-26T13:05:48.486Z,3.73
2018-04-26T13:08:14.987Z,3.37
2018-04-26T13:10:42.227Z,2.80
2018-04-26T13:13:08.686Z,3.20
2018-04-26T13:15:35.157Z,3.47
2018-04-26T13:18:01.625Z,2.57
2018-04-26T13:20:28.093Z,2.70
2018-04-26T13:22:55.312Z,3.67
2018-04-26T13:25:22.272Z,3.60
2018-04-26T13:27:48.720Z,3.77
2018-04-26T13:30:15.209Z,3.57
2018-04-26T13:32:41.688Z,3.53
2018-04-26T13:35:08.144Z,4.00
2018-04-26T13:37:35.377Z,2.03
2018-04-26T13:40:01.855Z,2.20
2018-04-26T13:42:28.315Z,1.90
2018-04-26T13:44:54.763Z,1.80
2018-04-26T13:47:21.250Z,1.90
2018-04-26T13:49:47.733Z,1.43
2018-04-26T13:52:14.241Z,2.17
2018-04-26T13:54:41.485Z,1.63
2018-04-26T13:57:08.690Z,1.40
2018-04-26T13:59:35.223Z,1.03
2018-04-26T14:02:01.702Z,1.10
2018-04-26T14:04:28.218Z,1.57
2018-04-26T14:06:54.785Z,1.30
2018-04-26T14:09:21.272Z,1.80
2018-04-26T14:11:47.767Z,1.37
2018-04-26T14:14:14.212Z,1.20
2018-04-26T14:16:41.441Z,1.57
2018-04-26T14:19:07.906Z,1.37
2018-04-26T14:21:35.153Z,1.50
2018-04-26T14:24:01.621Z,1.60
2018-04-26T14:26:28.104Z,1.77
2018-04-26T14:28:55.305Z,1.83
2018-04-26T14:31:22.504Z,1.50
2018-04-26T14:33:48.986Z,1.40
2018-04-26T14:36:16.218Z,1.57
2018-04-26T14:38:42.710Z,1.90
2018-04-26T14:41:09.210Z,1.33
2018-04-26T14:43:36.510Z,2.30
2018-04-26T14:46:03.014Z,1.40
2018-04-26T14:48:30.499Z,1.67
2018-04-26T14:50:57.026Z,1.73
2018-04-26T14:53:23.520Z,1.90
2018-04-26T14:55:49.965Z,1.67
2018-04-26T14:58:16.457Z,1.98
2018-04-26T15:00:42.974Z,2.37
2018-04-26T15:03:09.472Z,2.85
2018-04-26T15:05:35.984Z,2.10
2018-04-26T15:08:02.466Z,2.80
2018-04-26T15:10:28.948Z,2.10
2018-04-26T15:12:55.467Z,2.78
2018-04-26T15:15:22.818Z,2.83
2018-04-26T15:17:49.933Z,2.65
2018-04-26T15:20:16.431Z,2.78
2018-04-26T15:22:42.945Z,2.60
2018-04-26T15:25:09.467Z,2.80
2018-04-26T15:27:36.000Z,2.80
2018-04-26T15:30:02.610Z,2.87
2018-04-26T15:32:29.110Z,3.00
2018-04-26T15:34:56.381Z,2.45
2018-04-26T15:37:22.860Z,3.42
2018-04-26T15:39:49.322Z,3.00
2018-04-26T15:42:15.824Z,3.33
2018-04-26T15:44:42.327Z,3.10
2018-04-26T15:47:09.526Z,3.35
2018-04-26T15:49:36.100Z,2.50
2018-04-26T15:52:02.577Z,3.17
2018-04-26T15:54:36.049Z,3.25
2018-04-26T15:57:12.622Z,4.05
2018-04-26T16:13:38.129Z,4.18
2018-04-26T16:16:15.629Z,4.50
2018-04-26T16:18:54.475Z,4.80
2018-04-26T16:21:33.233Z,4.07
2018-04-26T16:24:12.090Z,3.30
2018-04-26T16:26:56.816Z,3.70
2018-04-26T16:29:39.252Z,4.03
2018-04-26T16:35:29.291Z,3.90
2018-04-26T16:38:14.085Z,4.60
2018-04-26T16:40:40.630Z,4.12
2018-04-26T16:43:07.161Z,4.55
2018-04-26T16:45:33.664Z,4.60
2018-04-26T16:48:00.176Z,3.80
2018-04-26T16:50:26.721Z,4.93
2018-04-26T16:52:53.915Z,5.23
2018-04-26T16:55:20.414Z,4.70
2018-04-26T16:57:46.903Z,5.20
2018-04-26T17:00:13.505Z,4.43
2018-04-26T17:02:40.080Z,4.53
2018-04-26T17:05:06.541Z,4.25
2018-04-26T17:07:33.152Z,5.00
2018-04-26T17:10:01.566Z,5.15
2018-04-26T17:12:35.067Z,3.70
2018-04-26T17:15:01.632Z,4.20
2018-04-26T17:17:28.202Z,4.82
2018-04-26T17:19:54.672Z,4.80
2018-04-26T17:22:21.206Z,4.72
2018-04-26T17:24:47.661Z,4.68
2018-04-26T17:27:14.148Z,4.18
2018-04-26T17:29:40.654Z,4.12
2018-04-26T17:32:07.897Z,3.40
2018-04-26T17:34:35.162Z,3.95
2018-04-26T17:37:02.463Z,3.77
2018-04-26T17:39:28.940Z,4.57
2018-04-26T17:41:55.499Z,8.57
2018-04-26T17:44:22.024Z,5.97
2018-04-26T17:46:48.493Z,4.07
2018-04-26T17:49:14.993Z,5.32
2018-04-26T17:51:41.571Z,4.27
2018-04-26T17:54:08.814Z,4.63
2018-04-26T17:56:36.069Z,5.03
2018-04-26T17:59:03.328Z,5.65
2018-04-26T18:01:30.564Z,4.70
2018-04-26T18:03:57.080Z,4.75
2018-04-26T18:06:23.632Z,5.35
2018-04-26T18:08:50.124Z,5.50
2018-04-26T18:11:16.620Z,5.70
2018-04-26T18:13:43.186Z,6.93
2018-04-26T18:16:10.437Z,5.65
2018-04-26T18:18:37.702Z,6.83
2018-04-26T18:21:04.975Z,6.60
2018-04-26T18:23:31.532Z,5.95
2018-04-26T18:25:58.733Z,6.50
2018-04-26T18:28:25.323Z,5.80
2018-04-26T18:30:51.791Z,6.97
2018-04-26T18:33:18.262Z,6.70
2018-04-26T18:35:45.557Z,6.10
2018-04-26T18:38:12.025Z,6.77
2018-04-26T18:40:38.503Z,6.40
2018-04-26T18:43:09.802Z,8.10
2018-04-26T18:45:32.284Z,8.05
2018-04-26T18:47:59.520Z,7.87
2018-04-26T18:50:26.057Z,8.60
2018-04-26T18:52:52.638Z,7.85
2018-04-26T18:55:19.872Z,8.23
2018-04-26T18:57:46.416Z,9.03
2018-04-26T19:00:13.601Z,8.07
2018-04-26T19:02:40.065Z,8.00
2018-04-26T19:05:06.580Z,7.85
2018-04-26T19:07:33.044Z,6.57
2018-04-26T19:10:00.329Z,6.37
2018-04-26T19:12:26.868Z,9.00
2018-04-26T19:14:53.436Z,8.00
2018-04-26T19:17:20.676Z,8.10
2018-04-26T19:19:47.927Z,8.25
2018-04-26T19:22:14.409Z,9.50
2018-04-26T19:24:40.934Z,8.00
2018-04-26T19:27:07.453Z,7.87
2018-04-26T19:29:34.002Z,8.37
2018-04-26T19:32:01.223Z,7.10
2018-04-26T19:34:27.724Z,7.43
2018-04-26T19:36:54.247Z,7.90
2018-04-26T19:39:21.572Z,8.43
2018-04-26T19:41:48.006Z,8.40
2018-04-26T19:44:14.498Z,8.73
2018-04-26T19:46:40.983Z,9.82
2018-04-26T19:49:07.449Z,9.83
2018-04-26T19:51:34.636Z,9.93
2018-04-26T19:54:01.132Z,11.07
2018-04-26T19:56:28.401Z,11.10
2018-04-26T19:58:55.617Z,11.50
2018-04-26T20:01:22.084Z,10.30
2018-04-26T20:03:49.311Z,11.40
2018-04-26T20:06:15.806Z,11.40
2018-04-26T20:08:42.354Z,11.15
2018-04-26T20:11:08.821Z,13.77
2018-04-26T20:13:35.329Z,13.55
2018-04-26T20:16:01.802Z,13.67
2018-04-26T20:18:28.436Z,12.77
2018-04-26T20:20:54.917Z,12.43
2018-04-26T20:23:21.389Z,12.27
2018-04-26T20:25:47.864Z,12.27
2018-04-26T20:28:14.455Z,13.07
2018-04-26T20:30:40.866Z,11.20
2018-04-26T20:33:08.074Z,9.85
2018-04-26T20:35:34.565Z,12.63
2018-04-26T20:38:01.770Z,9.20
2018-04-26T20:40:28.298Z,9.87
2018-04-26T20:42:54.776Z,9.93
2018-04-26T20:45:21.285Z,10.38
2018-04-26T20:47:47.857Z,10.80
2018-04-26T20:50:14.392Z,10.80
2018-04-26T20:52:40.893Z,12.60
2018-04-26T20:55:07.389Z,11.18
2018-04-26T20:57:34.596Z,11.57
2018-04-26T21:00:01.109Z,11.53
2018-04-26T21:02:27.656Z,12.40
2018-04-26T21:04:54.150Z,12.70
2018-04-26T21:07:20.684Z,12.68
2018-04-26T21:09:47.194Z,13.10
2018-04-26T21:12:13.658Z,12.67
2018-04-26T21:14:40.258Z,13.30
2018-04-26T21:17:06.808Z,14.23
2018-04-26T21:19:33.389Z,12.85
2018-04-26T21:21:59.905Z,13.40
2018-04-26T21:24:26.414Z,12.53
2018-04-26T21:26:52.937Z,12.53
2018-04-26T21:29:19.394Z,11.90
2018-04-26T21:31:45.974Z,13.13
2018-04-26T21:34:12.438Z,11.87
2018-04-26T21:36:39.790Z,11.97
2018-04-26T21:39:07.121Z,10.80
2018-04-26T21:41:33.620Z,10.05
2018-04-26T21:44:00.087Z,10.93
2018-04-26T21:46:26.616Z,9.47
2018-04-26T21:48:53.383Z,11.20
2018-04-26T21:51:26.027Z,8.70
2018-04-26T21:53:58.574Z,9.27
2018-04-26T21:56:31.932Z,9.57
2018-04-26T21:59:04.469Z,10.60
2018-04-26T22:01:37.022Z,9.57
2018-04-26T22:17:20.581Z,8.13
2018-04-26T22:19:47.801Z,10.33
2018-04-26T22:22:15.027Z,9.93
2018-04-26T22:24:41.547Z,8.40
2018-04-26T22:27:07.994Z,10.23
2018-04-26T22:29:34.458Z,9.27
2018-04-26T22:32:00.967Z,9.80
2018-04-26T22:34:27.465Z,11.37
2018-04-26T22:36:53.913Z,10.70
2018-04-26T22:39:20.384Z,10.90
2018-04-26T22:41:46.832Z,11.27
2018-04-26T22:44:13.284Z,10.90
2018-04-26T22:46:39.742Z,11.83
2018-04-26T22:49:06.185Z,10.20
2018-04-26T22:51:32.648Z,9.73
2018-04-26T22:53:59.888Z,9.40
2018-04-26T22:56:26.351Z,8.93
2018-04-26T22:58:53.603Z,8.37
2018-04-26T23:01:20.832Z,8.30
2018-04-26T23:03:47.293Z,7.70
2018-04-26T23:06:14.492Z,7.80
2018-04-26T23:08:40.973Z,7.90
2018-04-26T23:11:07.432Z,7.00
2018-04-26T23:13:34.623Z,7.30
2018-04-26T23:16:01.117Z,7.73
2018-04-26T23:18:28.319Z,6.77
2018-04-26T23:20:54.780Z,8.00
2018-04-26T23:23:21.245Z,6.70
2018-04-26T23:25:48.489Z,6.97
2018-04-26T23:28:14.938Z,7.28
2018-04-26T23:30:41.452Z,6.80
2018-04-26T23:33:07.896Z,7.30
2018-04-26T23:35:34.357Z,6.70
2018-04-26T23:38:01.621Z,8.77
2018-04-26T23:40:28.810Z,11.97
2018-04-26T23:42:55.259Z,14.98
2018-04-26T23:45:21.748Z,15.38
2018-04-26T23:47:48.945Z,16.60
2018-04-26T23:50:15.419Z,17.57
2018-04-26T23:52:41.885Z,15.30
2018-04-26T23:55:09.099Z,16.80
2018-04-26T23:57:35.584Z,16.47
